This is the latest recevied weather packets stored in our database for station/object KR4BRU. If no packets are shown the sender has not sent any weather packets the latest 10 day(s).
| Time | Temp. | Humidity | Pressure | Rain* | Wind** | Luminosity | Snow |
|---|---|---|---|---|---|---|---|
| 1777993185 | 21.67° C | 47% | 1011.7 hPa | 0 mm | - | 590 W/m² | - |
| 1777992581 | 22.22° C | 46% | 1011.9 hPa | 0 mm | - | 746 W/m² | - |
| 1777991976 | 21.11° C | 51% | 1011.8 hPa | 0 mm | - | 712 W/m² | - |
| 1777991370 | 21.11° C | 49% | 1011.8 hPa | 0 mm | - | 599 W/m² | - |
| 1777990771 | 20.56° C | 51% | 1011.8 hPa | 0 mm | - | 510 W/m² | - |
| 1777989569 | 20° C | 52% | 1011.6 hPa | 0 mm | - | 347 W/m² | - |
| 1777988968 | 19.44° C | 54% | 1011.5 hPa | 0 mm | - | 245 W/m² | - |
| 1777988367 | 18.89° C | 56% | 1011.7 hPa | 0 mm | - | 219 W/m² | - |
| 1777987765 | 19.44° C | 55% | 1011.7 hPa | 0 mm | - | 267 W/m² | - |
| 1777987166 | 20.56° C | 54% | 1011.7 hPa | 0 mm | - | 343 W/m² | - |
| 1777986560 | 18.33° C | 60% | 1011.9 hPa | 0 mm | - | 244 W/m² | - |
| 1777985955 | 17.78° C | 63% | 1011.9 hPa | 0 mm | - | 164 W/m² | - |
| 1777985355 | 17.22° C | 68% | 1011.6 hPa | 0 mm | - | 91 W/m² | - |
| 1777984753 | 16.67° C | 67% | 1011.4 hPa | 0 mm | - | 77 W/m² | - |
| 1777984151 | 15.56° C | 76% | 1011.2 hPa | 0 mm | - | 79 W/m² | - |
| 1777983546 | 15° C | 78% | 1011.3 hPa | 0 mm | - | 82 W/m² | - |
| 1777982944 | 14.44° C | 80% | 1011 hPa | 0 mm | - | 78 W/m² | - |
| 1777982340 | 13.89° C | 81% | 1011.4 hPa | 0 mm | - | 64 W/m² | - |
| 1777981735 | 12.78° C | 82% | 1010.9 hPa | 0 mm | - | 50 W/m² | - |
| 1777981133 | 12.78° C | 83% | 1010.8 hPa | 0 mm | - | 38 W/m² | - |
| 1777980531 | 12.22° C | 83% | 1010.7 hPa | 0 mm | - | 28 W/m² | - |
| 1777979931 | 11.67° C | 84% | 1010.5 hPa | 0 mm | - | 21 W/m² | - |
| 1777979327 | 11.67° C | 84% | 1010.5 hPa | 0 mm | - | 14 W/m² | - |
| 1777978727 | 11.67° C | 84% | 1010.5 hPa | 0 mm | - | 8 W/m² | - |
| 1777978126 | 11.67° C | 84% | 1010.1 hPa | 0 mm | - | 3 W/m² | - |
* Rain latest hour (hover to see other rain measurements)
** Current wind speed in m/s (hover to see current wind gust speed)